createdAt,value
2022-12-24T00:03:53.223Z,-11.74924
2022-12-24T00:08:54.823Z,-11.66668
2022-12-24T00:13:56.583Z,-11.59048
2022-12-24T00:18:58.239Z,-11.48919
2022-12-24T00:23:59.918Z,-11.36695
2022-12-24T00:29:01.560Z,-11.87085
2022-12-24T00:34:03.441Z,-11.97849
2022-12-24T00:39:05.079Z,-12.39857
2022-12-24T00:44:06.793Z,-12.02199
2022-12-24T00:49:08.522Z,-12.68084
2022-12-24T00:54:10.179Z,-13.27301
2022-12-24T00:59:11.974Z,-13.01264
2022-12-24T01:04:13.651Z,-13.02058
2022-12-24T01:09:15.313Z,-12.76689
2022-12-24T01:14:17.021Z,-13.25681
2022-12-24T01:19:18.652Z,-13.12758
2022-12-24T01:24:20.267Z,-13.17807
2022-12-24T01:29:21.900Z,-12.7672
2022-12-24T01:34:23.516Z,-13.62989
2022-12-24T01:39:25.217Z,-13.42827
2022-12-24T01:44:33.103Z,-13.45272
2022-12-24T01:49:35.074Z,-13.53908
2022-12-24T01:54:36.757Z,-13.581
2022-12-24T01:59:38.401Z,-12.26299
2022-12-24T02:04:40.059Z,-12.98724
2022-12-24T02:09:41.749Z,-11.81465
2022-12-24T02:14:43.373Z,-11.60572
2022-12-24T02:19:44.970Z,-11.77147
2022-12-24T02:24:46.617Z,-11.6851
2022-12-24T02:29:48.339Z,-11.32217
2022-12-24T02:34:50.011Z,-11.22565
2022-12-24T02:39:51.710Z,-11.23359
2022-12-24T02:44:53.364Z,-12.08835
2022-12-24T02:49:55.192Z,-12.35253
2022-12-24T02:54:56.916Z,-12.4935
2022-12-24T02:59:58.574Z,-11.91499
2022-12-24T03:05:00.201Z,-12.4554
2022-12-24T03:10:01.931Z,-12.90945
2022-12-24T03:15:03.598Z,-12.40619
2022-12-24T03:20:05.350Z,-12.29315
2022-12-24T03:25:07.108Z,-11.9461
2022-12-24T03:30:08.703Z,-12.04136
2022-12-24T03:35:10.350Z,-12.32808
2022-12-24T03:40:12.187Z,-11.801
2022-12-24T03:45:13.812Z,-11.01291
2022-12-24T03:50:15.510Z,-11.05355
2022-12-24T03:55:17.192Z,-11.61144
2022-12-24T04:00:18.827Z,-11.82989
2022-12-24T04:05:20.463Z,-12.76339
2022-12-24T04:10:22.134Z,-11.84926
2022-12-24T04:15:23.787Z,-12.30395
2022-12-24T04:20:25.559Z,-11.74321
2022-12-24T04:25:27.299Z,-11.84418
2022-12-24T04:30:29.049Z,-11.72511
2022-12-24T04:35:31.016Z,-11.53142
2022-12-24T04:40:32.674Z,-11.71495
2022-12-24T04:45:34.375Z,-11.2012
2022-12-24T04:50:36.120Z,-10.95036
2022-12-24T04:55:37.765Z,-10.95226
2022-12-24T05:00:39.571Z,-11.96388
2022-12-24T05:05:41.232Z,-11.11007
2022-12-24T05:10:42.918Z,-10.76302
2022-12-24T05:15:44.572Z,-10.75286
2022-12-24T05:20:46.177Z,-10.58901
2022-12-24T05:25:47.878Z,-10.78937
2022-12-24T05:30:49.608Z,-10.87383
2022-12-24T05:35:51.237Z,-10.34928
2022-12-24T05:40:52.894Z,-10.59632
2022-12-24T05:45:54.588Z,-10.84589
2022-12-24T05:50:56.291Z,-10.68681
2022-12-24T05:55:57.943Z,-10.28133
2022-12-24T06:00:59.805Z,-10.14194
2022-12-24T06:06:01.462Z,-10.33245
2022-12-24T06:11:03.153Z,-10.52614
2022-12-24T06:16:05.054Z,-10.45407
2022-12-24T06:21:06.746Z,-10.32325
2022-12-24T06:26:08.411Z,-10.51217
2022-12-24T06:31:10.198Z,-10.41247
2022-12-24T06:36:16.934Z,-10.3877
2022-12-24T06:41:19.469Z,-10.46486
2022-12-24T06:46:21.243Z,-10.45502
2022-12-24T06:51:22.922Z,-10.83605
2022-12-24T06:56:25.433Z,-10.23815
2022-12-24T07:01:27.135Z,-10.07335
2022-12-24T07:06:28.871Z,-10.01556
2022-12-24T07:11:30.624Z,-10.03652
2022-12-24T07:16:32.409Z,-10.1848
2022-12-24T07:21:34.120Z,-10.70396
2022-12-24T07:26:35.835Z,-9.98635
2022-12-24T07:31:37.514Z,-9.93713
2022-12-24T07:36:39.212Z,-9.93205
2022-12-24T07:41:41.949Z,-10.00318
2022-12-24T07:46:43.943Z,-9.73836
2022-12-24T07:51:45.604Z,-10.09939
2022-12-24T07:56:47.278Z,-10.09272
2022-12-24T08:01:49.136Z,-10.01525
2022-12-24T08:06:50.884Z,-9.95555
2022-12-24T08:11:52.720Z,-9.96349
2022-12-24T08:16:54.594Z,-9.77742
2022-12-24T08:21:56.420Z,-10.37977
2022-12-24T08:26:58.092Z,-9.77583
2022-12-24T08:31:59.777Z,-10.24704
2022-12-24T08:37:01.488Z,-9.60119
2022-12-24T08:42:03.219Z,-9.86474
2022-12-24T08:47:04.950Z,-9.69677
2022-12-24T08:52:06.593Z,-9.51959
2022-12-24T08:57:08.445Z,-10.66458
2022-12-24T09:02:10.292Z,-10.01429
2022-12-24T09:07:12.215Z,-9.98445
2022-12-24T09:12:13.896Z,-9.47577
2022-12-24T09:17:15.536Z,-10.04033
2022-12-24T09:22:17.167Z,-10.5833
2022-12-24T09:27:18.871Z,-10.34103
2022-12-24T09:32:20.665Z,-9.71804
2022-12-24T09:37:22.344Z,-9.69391
2022-12-24T09:42:24.004Z,-9.48021
2022-12-24T09:47:25.631Z,-9.69931
2022-12-24T09:52:27.295Z,-10.48487
2022-12-24T09:57:28.974Z,-9.88696
2022-12-24T10:02:30.807Z,-10.44359
2022-12-24T10:07:32.643Z,-10.2391
2022-12-24T10:12:34.271Z,-9.66628
2022-12-24T10:17:35.929Z,-10.308
2022-12-24T10:22:37.572Z,-10.48328
2022-12-24T10:27:39.300Z,-10.47756
2022-12-24T10:32:40.994Z,-10.21973
2022-12-24T10:37:42.646Z,-10.14194
2022-12-24T10:42:50.649Z,-9.6901
2022-12-24T10:47:52.885Z,-9.431
2022-12-24T10:52:54.635Z,-9.53641
2022-12-24T10:57:56.396Z,-9.50403
2022-12-24T11:02:58.439Z,-9.83616
2022-12-24T11:08:00.475Z,-9.51863
2022-12-24T11:13:35.758Z,-9.3278
2022-12-24T11:18:38.923Z,-9.57674
2022-12-24T11:23:40.525Z,-9.22206
2022-12-24T11:28:42.321Z,-9.96889
2022-12-24T11:33:43.984Z,-9.98413
2022-12-24T11:38:45.640Z,-11.00211
2022-12-24T11:43:47.358Z,-10.47915
2022-12-24T11:48:49.064Z,-9.70724
2022-12-24T11:53:50.744Z,-10.04351
2022-12-24T11:58:52.488Z,-10.52265
2022-12-24T12:03:54.209Z,-9.73328
2022-12-24T12:08:55.992Z,-9.72344
2022-12-24T12:13:57.700Z,-9.65263
2022-12-24T12:18:59.356Z,-9.8622
2022-12-24T12:24:01.023Z,-9.98254
2022-12-24T12:29:02.916Z,-9.56182
2022-12-24T12:34:04.748Z,-9.71741
2022-12-24T12:39:06.373Z,-9.87966
2022-12-24T12:44:07.979Z,-10.06605
2022-12-24T12:49:09.609Z,-9.70978
2022-12-24T12:54:11.316Z,-9.78345
2022-12-24T12:59:12.925Z,-9.29795
2022-12-24T13:04:14.611Z,-9.89109
2022-12-24T13:09:16.290Z,-9.39194
2022-12-24T13:14:17.934Z,-9.89427
2022-12-24T13:19:19.718Z,-10.76873
2022-12-24T13:24:21.390Z,-9.69772
2022-12-24T13:29:23.028Z,-9.68152
2022-12-24T13:34:24.735Z,-9.21889
2022-12-24T13:39:26.352Z,-9.35034
2022-12-24T13:44:28.063Z,-9.17316
2022-12-24T13:49:29.794Z,-9.36368
2022-12-24T13:54:31.519Z,-10.47756
2022-12-24T13:59:38.016Z,-9.78091
2022-12-24T14:04:40.491Z,-9.68534
2022-12-24T14:09:42.155Z,-9.4764
2022-12-24T14:14:43.825Z,-9.16872
2022-12-24T14:19:45.690Z,-9.13474
2022-12-24T14:24:47.388Z,-8.99534
2022-12-24T14:29:49.018Z,-9.06361
2022-12-24T14:34:50.690Z,-9.07028
2022-12-24T14:39:52.395Z,-9.49037
2022-12-24T14:44:54.056Z,-9.97301
2022-12-24T14:49:55.726Z,-9.91745
2022-12-24T14:54:57.382Z,-9.19793
2022-12-24T14:59:59.107Z,-8.87722
2022-12-24T15:05:00.865Z,-9.08457
2022-12-24T15:10:02.576Z,-9.15633
2022-12-24T15:15:04.328Z,-9.45259
2022-12-24T15:20:06.040Z,-10.34134
2022-12-24T15:25:07.674Z,-9.84029
2022-12-24T15:30:09.295Z,-9.61643
2022-12-24T15:35:10.926Z,-10.37945
2022-12-24T15:40:12.604Z,-10.04859
2022-12-24T15:45:14.228Z,-9.6558
2022-12-24T15:50:16.011Z,-9.96857
2022-12-24T15:55:17.667Z,-9.48656
2022-12-24T16:00:19.372Z,-9.77996
2022-12-24T16:05:21.091Z,-9.32907
2022-12-24T16:10:22.764Z,-9.05726
2022-12-24T16:15:24.606Z,-8.83976
2022-12-24T16:20:26.323Z,-8.83753
2022-12-24T16:25:28.682Z,-9.2408
2022-12-24T16:30:30.381Z,-8.86452
2022-12-24T16:35:31.996Z,-8.96677
2022-12-24T16:40:33.625Z,-8.76355
2022-12-24T16:45:35.295Z,-8.63082
2022-12-24T16:50:36.977Z,-8.58986
2022-12-24T16:55:38.696Z,-8.8912
2022-12-24T17:00:40.454Z,-10.00445
2022-12-24T17:05:42.130Z,-9.82314
2022-12-24T17:10:43.783Z,-10.46581
2022-12-24T17:15:45.497Z,-10.21021
2022-12-24T17:20:47.297Z,-9.8314
2022-12-24T17:25:48.999Z,-10.14511
2022-12-24T17:30:50.707Z,-9.92824
2022-12-24T17:35:52.366Z,-9.21539
2022-12-24T17:40:54.069Z,-9.18682
2022-12-24T17:45:55.698Z,-9.42147
2022-12-24T17:50:57.393Z,-9.18332
2022-12-24T17:55:59.044Z,-8.78895
2022-12-24T18:01:00.666Z,-8.72132
2022-12-24T18:06:02.425Z,-8.27772
2022-12-24T18:11:04.101Z,-8.42919
2022-12-24T18:16:05.767Z,-8.44157
2022-12-24T18:21:17.564Z,-8.81658
2022-12-24T18:26:19.254Z,-10.11304
2022-12-24T18:31:20.910Z,-9.77869
2022-12-24T18:36:22.658Z,-9.66914
2022-12-24T18:41:24.311Z,-10.45026
2022-12-24T18:46:26.047Z,-10.14734
2022-12-24T18:51:27.765Z,-9.09568
2022-12-24T18:56:29.409Z,-9.50625
2022-12-24T19:01:31.114Z,-9.55547
2022-12-24T19:06:32.806Z,-9.35066
2022-12-24T19:11:34.507Z,-9.09791
2022-12-24T19:16:36.251Z,-9.58182
2022-12-24T19:21:38.127Z,-9.76249
2022-12-24T19:26:39.796Z,-9.7409
2022-12-24T19:31:41.525Z,-9.66184
2022-12-24T19:36:43.257Z,-9.61961
2022-12-24T19:41:45.009Z,-8.80768
2022-12-24T19:46:46.880Z,-8.10594
2022-12-24T19:51:48.534Z,-8.51714
2022-12-24T19:56:50.117Z,-8.9312
2022-12-24T20:01:51.910Z,-8.98423
2022-12-24T20:06:59.698Z,-8.35774
2022-12-24T20:12:02.453Z,-8.4873
2022-12-24T20:17:04.156Z,-9.16872
2022-12-24T20:22:05.887Z,-10.12066
2022-12-24T20:27:07.528Z,-10.08034
2022-12-24T20:32:09.263Z,-9.84315
2022-12-24T20:37:10.956Z,-9.51609
2022-12-24T20:42:12.592Z,-9.86982
2022-12-24T20:47:14.252Z,-10.11717
2022-12-24T20:52:15.909Z,-8.83721
2022-12-24T20:57:21.753Z,-9.30875
2022-12-24T21:02:26.904Z,-9.57547
2022-12-24T21:07:28.849Z,-9.59262
2022-12-24T21:12:30.786Z,-8.52635
2022-12-24T21:17:32.462Z,-8.24438
2022-12-24T21:22:34.218Z,-8.81404
2022-12-24T21:27:35.902Z,-9.42179
2022-12-24T21:32:37.630Z,-8.91596
2022-12-24T21:37:39.276Z,-9.11442
2022-12-24T21:42:40.979Z,-9.04361
2022-12-24T21:47:42.665Z,-10.0108
2022-12-24T21:52:45.122Z,-9.33542
2022-12-24T21:57:46.809Z,-9.69581
2022-12-24T22:02:48.851Z,-9.48402
2022-12-24T22:07:50.662Z,-9.74598
2022-12-24T22:12:52.332Z,-9.94158
2022-12-24T22:17:54.034Z,-8.51206
2022-12-24T22:22:55.704Z,-9.00011
2022-12-24T22:27:57.358Z,-8.2031
2022-12-24T22:32:59.108Z,-7.70934
2022-12-24T22:38:00.825Z,-8.62669
2022-12-24T22:43:02.557Z,-9.26366
2022-12-24T22:48:04.363Z,-8.62034
2022-12-24T22:53:06.017Z,-8.9493
2022-12-24T22:58:07.671Z,-9.25064
2022-12-24T23:03:09.460Z,-8.92422
2022-12-24T23:08:11.223Z,-10.16353
2022-12-24T23:13:15.048Z,-8.9293
2022-12-24T23:18:16.956Z,-8.56858
2022-12-24T23:23:18.668Z,-8.40156
2022-12-24T23:28:20.253Z,-8.30789
2022-12-24T23:33:21.940Z,-8.94295
2022-12-24T23:38:23.589Z,-8.49809
2022-12-24T23:43:25.205Z,-9.00646
2022-12-24T23:48:26.832Z,-8.79975
2022-12-24T23:53:28.632Z,-8.53111
2022-12-24T23:58:30.305Z,-7.79666
